sensor_id;sensor_type;location;lat;lon;timestamp;P1;durP1;ratioP1;P2;durP2;ratioP2
43146;SDS011;28752;48.266;7.402;2022-12-20T00:01:25;26.83;;;17.38;;
43146;SDS011;28752;48.266;7.402;2022-12-20T00:03:53;28.95;;;17.92;;
43146;SDS011;28752;48.266;7.402;2022-12-20T00:06:21;32.90;;;18.42;;
43146;SDS011;28752;48.266;7.402;2022-12-20T00:08:52;37.58;;;24.83;;
43146;SDS011;28752;48.266;7.402;2022-12-20T00:11:18;39.58;;;25.73;;
43146;SDS011;28752;48.266;7.402;2022-12-20T00:13:44;33.37;;;21.90;;
43146;SDS011;28752;48.266;7.402;2022-12-20T00:16:11;34.22;;;22.30;;
43146;SDS011;28752;48.266;7.402;2022-12-20T00:18:39;30.65;;;19.75;;
43146;SDS011;28752;48.266;7.402;2022-12-20T00:23:32;26.10;;;15.32;;
43146;SDS011;28752;48.266;7.402;2022-12-20T00:26:01;24.90;;;15.13;;
43146;SDS011;28752;48.266;7.402;2022-12-20T00:28:32;22.85;;;15.07;;
43146;SDS011;28752;48.266;7.402;2022-12-20T00:30:58;31.38;;;20.10;;
43146;SDS011;28752;48.266;7.402;2022-12-20T00:33:24;37.13;;;23.80;;
43146;SDS011;28752;48.266;7.402;2022-12-20T00:35:49;37.67;;;23.77;;
43146;SDS011;28752;48.266;7.402;2022-12-20T00:38:15;40.07;;;23.00;;
43146;SDS011;28752;48.266;7.402;2022-12-20T00:40:40;33.23;;;21.17;;
43146;SDS011;28752;48.266;7.402;2022-12-20T00:43:06;32.20;;;17.57;;
43146;SDS011;28752;48.266;7.402;2022-12-20T00:45:31;23.27;;;15.43;;
43146;SDS011;28752;48.266;7.402;2022-12-20T00:47:57;24.50;;;15.60;;
43146;SDS011;28752;48.266;7.402;2022-12-20T00:50:22;25.57;;;17.27;;
43146;SDS011;28752;48.266;7.402;2022-12-20T00:52:48;26.23;;;15.80;;
43146;SDS011;28752;48.266;7.402;2022-12-20T00:55:13;24.10;;;15.77;;
43146;SDS011;28752;48.266;7.402;2022-12-20T00:57:39;25.47;;;17.07;;
43146;SDS011;28752;48.266;7.402;2022-12-20T01:00:04;28.33;;;18.83;;
43146;SDS011;28752;48.266;7.402;2022-12-20T01:02:31;27.73;;;18.45;;
43146;SDS011;28752;48.266;7.402;2022-12-20T01:04:56;27.37;;;17.27;;
43146;SDS011;28752;48.266;7.402;2022-12-20T01:07:22;28.97;;;18.87;;
43146;SDS011;28752;48.266;7.402;2022-12-20T01:09:48;29.30;;;19.77;;
43146;SDS011;28752;48.266;7.402;2022-12-20T01:12:14;25.23;;;16.47;;
43146;SDS011;28752;48.266;7.402;2022-12-20T01:14:39;23.00;;;14.17;;
43146;SDS011;28752;48.266;7.402;2022-12-20T01:17:05;20.53;;;13.60;;
43146;SDS011;28752;48.266;7.402;2022-12-20T01:19:31;26.48;;;16.17;;
43146;SDS011;28752;48.266;7.402;2022-12-20T01:21:56;22.67;;;14.43;;
43146;SDS011;28752;48.266;7.402;2022-12-20T01:24:22;22.83;;;14.80;;
43146;SDS011;28752;48.266;7.402;2022-12-20T01:26:47;25.70;;;14.73;;
43146;SDS011;28752;48.266;7.402;2022-12-20T01:29:13;21.42;;;15.02;;
43146;SDS011;28752;48.266;7.402;2022-12-20T01:31:39;20.88;;;14.63;;
43146;SDS011;28752;48.266;7.402;2022-12-20T01:34:05;23.50;;;14.35;;
43146;SDS011;28752;48.266;7.402;2022-12-20T01:36:32;26.65;;;16.02;;
43146;SDS011;28752;48.266;7.402;2022-12-20T01:39:03;22.55;;;15.35;;
43146;SDS011;28752;48.266;7.402;2022-12-20T01:41:36;24.42;;;16.25;;
43146;SDS011;28752;48.266;7.402;2022-12-20T01:44:04;23.02;;;15.25;;
43146;SDS011;28752;48.266;7.402;2022-12-20T01:46:42;23.77;;;14.93;;
43146;SDS011;28752;48.266;7.402;2022-12-20T01:52:01;22.40;;;14.88;;
43146;SDS011;28752;48.266;7.402;2022-12-20T01:54:37;20.92;;;14.45;;
43146;SDS011;28752;48.266;7.402;2022-12-20T01:57:23;20.70;;;13.60;;
43146;SDS011;28752;48.266;7.402;2022-12-20T01:59:53;21.83;;;14.45;;
43146;SDS011;28752;48.266;7.402;2022-12-20T02:02:20;21.73;;;13.43;;
43146;SDS011;28752;48.266;7.402;2022-12-20T02:04:45;21.03;;;13.13;;
43146;SDS011;28752;48.266;7.402;2022-12-20T02:07:11;21.57;;;12.87;;
43146;SDS011;28752;48.266;7.402;2022-12-20T02:09:44;18.63;;;11.43;;
43146;SDS011;28752;48.266;7.402;2022-12-20T02:12:11;14.95;;;9.50;;
43146;SDS011;28752;48.266;7.402;2022-12-20T02:20:00;11.25;;;7.07;;
43146;SDS011;28752;48.266;7.402;2022-12-20T02:30:46;11.77;;;7.47;;
43146;SDS011;28752;48.266;7.402;2022-12-20T02:33:16;10.25;;;6.65;;
43146;SDS011;28752;48.266;7.402;2022-12-20T02:35:45;12.13;;;7.35;;
43146;SDS011;28752;48.266;7.402;2022-12-20T02:38:32;11.33;;;7.73;;
43146;SDS011;28752;48.266;7.402;2022-12-20T02:41:42;12.88;;;7.78;;
43146;SDS011;28752;48.266;7.402;2022-12-20T02:43:55;12.63;;;8.38;;
43146;SDS011;28752;48.266;7.402;2022-12-20T02:46:44;13.30;;;8.57;;
43146;SDS011;28752;48.266;7.402;2022-12-20T02:49:15;13.35;;;8.70;;
43146;SDS011;28752;48.266;7.402;2022-12-20T02:51:44;15.77;;;8.82;;
43146;SDS011;28752;48.266;7.402;2022-12-20T02:54:13;14.38;;;9.18;;
43146;SDS011;28752;48.266;7.402;2022-12-20T02:56:49;14.15;;;9.80;;
43146;SDS011;28752;48.266;7.402;2022-12-20T02:59:24;19.67;;;10.27;;
43146;SDS011;28752;48.266;7.402;2022-12-20T03:01:55;15.35;;;9.98;;
43146;SDS011;28752;48.266;7.402;2022-12-20T03:04:22;16.25;;;9.95;;
43146;SDS011;28752;48.266;7.402;2022-12-20T03:07:04;13.93;;;8.98;;
43146;SDS011;28752;48.266;7.402;2022-12-20T03:09:33;14.45;;;9.13;;
43146;SDS011;28752;48.266;7.402;2022-12-20T03:12:01;12.90;;;8.52;;
43146;SDS011;28752;48.266;7.402;2022-12-20T03:14:28;13.35;;;8.30;;
43146;SDS011;28752;48.266;7.402;2022-12-20T03:16:53;14.30;;;8.57;;
43146;SDS011;28752;48.266;7.402;2022-12-20T03:19:19;11.63;;;7.70;;
43146;SDS011;28752;48.266;7.402;2022-12-20T03:21:44;12.02;;;7.25;;
43146;SDS011;28752;48.266;7.402;2022-12-20T03:24:10;11.70;;;7.43;;
43146;SDS011;28752;48.266;7.402;2022-12-20T03:26:37;11.88;;;6.75;;
43146;SDS011;28752;48.266;7.402;2022-12-20T03:33:54;10.80;;;6.60;;
43146;SDS011;28752;48.266;7.402;2022-12-20T03:36:22;11.32;;;6.20;;
43146;SDS011;28752;48.266;7.402;2022-12-20T03:38:51;10.25;;;6.15;;
43146;SDS011;28752;48.266;7.402;2022-12-20T03:41:18;11.75;;;6.85;;
43146;SDS011;28752;48.266;7.402;2022-12-20T03:43:46;11.27;;;6.53;;
43146;SDS011;28752;48.266;7.402;2022-12-20T03:46:11;8.40;;;4.60;;
43146;SDS011;28752;48.266;7.402;2022-12-20T03:48:37;8.67;;;5.03;;
43146;SDS011;28752;48.266;7.402;2022-12-20T03:51:02;8.52;;;5.32;;
43146;SDS011;28752;48.266;7.402;2022-12-20T03:53:28;10.50;;;4.35;;
43146;SDS011;28752;48.266;7.402;2022-12-20T03:55:54;8.07;;;4.40;;
43146;SDS011;28752;48.266;7.402;2022-12-20T03:58:20;6.70;;;3.70;;
43146;SDS011;28752;48.266;7.402;2022-12-20T04:00:45;7.13;;;4.17;;
43146;SDS011;28752;48.266;7.402;2022-12-20T04:03:11;6.47;;;4.07;;
43146;SDS011;28752;48.266;7.402;2022-12-20T04:05:37;8.40;;;4.85;;
43146;SDS011;28752;48.266;7.402;2022-12-20T04:08:02;10.80;;;5.80;;
43146;SDS011;28752;48.266;7.402;2022-12-20T04:10:28;9.10;;;5.60;;
43146;SDS011;28752;48.266;7.402;2022-12-20T04:12:54;8.52;;;5.28;;
43146;SDS011;28752;48.266;7.402;2022-12-20T04:15:19;8.20;;;5.17;;
43146;SDS011;28752;48.266;7.402;2022-12-20T04:17:44;7.73;;;4.63;;
43146;SDS011;28752;48.266;7.402;2022-12-20T04:20:12;7.47;;;4.43;;
43146;SDS011;28752;48.266;7.402;2022-12-20T04:22:48;7.88;;;4.95;;
43146;SDS011;28752;48.266;7.402;2022-12-20T04:25:16;8.50;;;5.45;;
43146;SDS011;28752;48.266;7.402;2022-12-20T04:27:43;8.88;;;5.22;;
43146;SDS011;28752;48.266;7.402;2022-12-20T04:30:08;8.73;;;4.93;;
43146;SDS011;28752;48.266;7.402;2022-12-20T04:37:26;6.83;;;3.60;;
43146;SDS011;28752;48.266;7.402;2022-12-20T04:39:51;8.07;;;5.13;;
43146;SDS011;28752;48.266;7.402;2022-12-20T04:42:17;7.73;;;5.30;;
43146;SDS011;28752;48.266;7.402;2022-12-20T04:44:42;8.77;;;4.82;;
43146;SDS011;28752;48.266;7.402;2022-12-20T04:47:08;7.20;;;4.73;;
43146;SDS011;28752;48.266;7.402;2022-12-20T04:49:34;8.38;;;4.93;;
43146;SDS011;28752;48.266;7.402;2022-12-20T04:52:00;9.47;;;4.93;;
43146;SDS011;28752;48.266;7.402;2022-12-20T04:54:46;7.68;;;4.65;;
43146;SDS011;28752;48.266;7.402;2022-12-20T04:57:11;8.68;;;4.80;;
43146;SDS011;28752;48.266;7.402;2022-12-20T04:59:37;9.38;;;4.60;;
43146;SDS011;28752;48.266;7.402;2022-12-20T05:02:02;8.70;;;4.60;;
43146;SDS011;28752;48.266;7.402;2022-12-20T05:04:28;9.20;;;4.87;;
43146;SDS011;28752;48.266;7.402;2022-12-20T05:06:53;9.57;;;5.13;;
43146;SDS011;28752;48.266;7.402;2022-12-20T05:09:18;7.80;;;4.67;;
43146;SDS011;28752;48.266;7.402;2022-12-20T05:11:44;8.00;;;4.13;;
43146;SDS011;28752;48.266;7.402;2022-12-20T05:14:09;10.40;;;4.50;;
43146;SDS011;28752;48.266;7.402;2022-12-20T05:16:34;7.30;;;4.10;;
43146;SDS011;28752;48.266;7.402;2022-12-20T05:19:01;8.20;;;4.45;;
43146;SDS011;28752;48.266;7.402;2022-12-20T05:21:30;7.80;;;4.32;;
43146;SDS011;28752;48.266;7.402;2022-12-20T05:24:14;8.23;;;4.40;;
43146;SDS011;28752;48.266;7.402;2022-12-20T05:26:58;7.22;;;4.70;;
43146;SDS011;28752;48.266;7.402;2022-12-20T05:29:23;15.05;;;8.20;;
43146;SDS011;28752;48.266;7.402;2022-12-20T05:31:49;10.23;;;6.27;;
43146;SDS011;28752;48.266;7.402;2022-12-20T05:34:14;9.87;;;5.87;;
43146;SDS011;28752;48.266;7.402;2022-12-20T05:36:39;9.10;;;5.40;;
43146;SDS011;28752;48.266;7.402;2022-12-20T05:39:05;7.97;;;4.90;;
43146;SDS011;28752;48.266;7.402;2022-12-20T05:41:30;7.80;;;4.50;;
43146;SDS011;28752;48.266;7.402;2022-12-20T05:43:56;8.37;;;4.30;;
43146;SDS011;28752;48.266;7.402;2022-12-20T05:46:22;8.65;;;4.47;;
43146;SDS011;28752;48.266;7.402;2022-12-20T05:48:47;9.13;;;4.40;;
43146;SDS011;28752;48.266;7.402;2022-12-20T05:51:13;9.70;;;5.43;;
43146;SDS011;28752;48.266;7.402;2022-12-20T05:53:38;8.57;;;5.43;;
43146;SDS011;28752;48.266;7.402;2022-12-20T05:56:03;9.40;;;4.80;;
43146;SDS011;28752;48.266;7.402;2022-12-20T05:58:29;8.73;;;5.25;;
43146;SDS011;28752;48.266;7.402;2022-12-20T06:00:54;9.57;;;6.27;;
43146;SDS011;28752;48.266;7.402;2022-12-20T06:03:20;9.90;;;5.07;;
43146;SDS011;28752;48.266;7.402;2022-12-20T06:05:46;11.20;;;5.13;;
43146;SDS011;28752;48.266;7.402;2022-12-20T06:08:11;8.52;;;4.40;;
43146;SDS011;28752;48.266;7.402;2022-12-20T06:10:37;9.82;;;5.32;;
43146;SDS011;28752;48.266;7.402;2022-12-20T06:13:04;9.02;;;5.32;;
43146;SDS011;28752;48.266;7.402;2022-12-20T06:15:31;9.35;;;5.68;;
43146;SDS011;28752;48.266;7.402;2022-12-20T06:17:57;8.03;;;4.53;;
43146;SDS011;28752;48.266;7.402;2022-12-20T06:20:22;9.00;;;6.37;;
43146;SDS011;28752;48.266;7.402;2022-12-20T06:22:48;8.50;;;4.90;;
43146;SDS011;28752;48.266;7.402;2022-12-20T06:25:13;7.80;;;4.73;;
43146;SDS011;28752;48.266;7.402;2022-12-20T06:27:39;8.02;;;4.80;;
43146;SDS011;28752;48.266;7.402;2022-12-20T06:30:07;10.93;;;6.65;;
43146;SDS011;28752;48.266;7.402;2022-12-20T06:32:33;14.98;;;8.73;;
43146;SDS011;28752;48.266;7.402;2022-12-20T06:34:59;16.85;;;9.75;;
43146;SDS011;28752;48.266;7.402;2022-12-20T06:37:24;17.07;;;10.27;;
43146;SDS011;28752;48.266;7.402;2022-12-20T06:39:50;24.60;;;13.83;;
43146;SDS011;28752;48.266;7.402;2022-12-20T06:42:15;23.47;;;13.07;;
43146;SDS011;28752;48.266;7.402;2022-12-20T06:44:40;17.60;;;11.87;;
43146;SDS011;28752;48.266;7.402;2022-12-20T06:47:06;16.93;;;11.67;;
43146;SDS011;28752;48.266;7.402;2022-12-20T06:49:31;24.13;;;16.00;;
43146;SDS011;28752;48.266;7.402;2022-12-20T06:51:57;23.23;;;15.20;;
43146;SDS011;28752;48.266;7.402;2022-12-20T06:54:22;21.87;;;14.50;;
43146;SDS011;28752;48.266;7.402;2022-12-20T06:56:48;21.00;;;13.87;;
43146;SDS011;28752;48.266;7.402;2022-12-20T06:59:13;21.80;;;14.37;;
43146;SDS011;28752;48.266;7.402;2022-12-20T07:01:39;19.27;;;12.60;;
43146;SDS011;28752;48.266;7.402;2022-12-20T07:04:04;20.20;;;13.03;;
43146;SDS011;28752;48.266;7.402;2022-12-20T07:06:30;16.47;;;11.47;;
43146;SDS011;28752;48.266;7.402;2022-12-20T07:08:56;21.08;;;12.88;;
43146;SDS011;28752;48.266;7.402;2022-12-20T07:11:21;17.80;;;13.07;;
43146;SDS011;28752;48.266;7.402;2022-12-20T07:13:47;14.67;;;9.40;;
43146;SDS011;28752;48.266;7.402;2022-12-20T07:16:14;10.63;;;6.78;;
43146;SDS011;28752;48.266;7.402;2022-12-20T07:18:40;9.67;;;5.57;;
43146;SDS011;28752;48.266;7.402;2022-12-20T07:21:05;10.32;;;6.15;;
43146;SDS011;28752;48.266;7.402;2022-12-20T07:23:31;8.90;;;5.57;;
43146;SDS011;28752;48.266;7.402;2022-12-20T07:25:58;9.32;;;5.78;;
43146;SDS011;28752;48.266;7.402;2022-12-20T07:28:24;8.35;;;5.90;;
43146;SDS011;28752;48.266;7.402;2022-12-20T07:30:51;11.98;;;6.30;;
43146;SDS011;28752;48.266;7.402;2022-12-20T07:33:16;10.35;;;6.63;;
43146;SDS011;28752;48.266;7.402;2022-12-20T07:35:42;10.73;;;6.23;;
43146;SDS011;28752;48.266;7.402;2022-12-20T07:38:09;11.05;;;6.47;;
43146;SDS011;28752;48.266;7.402;2022-12-20T07:40:41;8.77;;;5.97;;
43146;SDS011;28752;48.266;7.402;2022-12-20T07:43:07;9.63;;;5.80;;
43146;SDS011;28752;48.266;7.402;2022-12-20T07:45:35;9.93;;;5.50;;
43146;SDS011;28752;48.266;7.402;2022-12-20T07:48:02;9.85;;;6.05;;
43146;SDS011;28752;48.266;7.402;2022-12-20T07:50:28;11.18;;;6.90;;
43146;SDS011;28752;48.266;7.402;2022-12-20T07:52:56;10.57;;;6.60;;
43146;SDS011;28752;48.266;7.402;2022-12-20T07:55:22;10.75;;;7.18;;
43146;SDS011;28752;48.266;7.402;2022-12-20T07:57:50;22.73;;;16.85;;
43146;SDS011;28752;48.266;7.402;2022-12-20T08:00:20;25.63;;;19.95;;
43146;SDS011;28752;48.266;7.402;2022-12-20T08:03:03;25.80;;;18.48;;
43146;SDS011;28752;48.266;7.402;2022-12-20T08:05:39;25.63;;;18.38;;
43146;SDS011;28752;48.266;7.402;2022-12-20T08:08:09;68.60;;;43.45;;
43146;SDS011;28752;48.266;7.402;2022-12-20T08:10:36;91.80;;;55.60;;
43146;SDS011;28752;48.266;7.402;2022-12-20T08:20:19;28.47;;;16.80;;
43146;SDS011;28752;48.266;7.402;2022-12-20T08:22:44;21.47;;;15.43;;
43146;SDS011;28752;48.266;7.402;2022-12-20T08:25:10;22.40;;;17.13;;
43146;SDS011;28752;48.266;7.402;2022-12-20T08:27:36;27.27;;;17.05;;
43146;SDS011;28752;48.266;7.402;2022-12-20T08:30:01;27.13;;;20.07;;
43146;SDS011;28752;48.266;7.402;2022-12-20T08:32:26;32.70;;;23.40;;
43146;SDS011;28752;48.266;7.402;2022-12-20T08:37:19;38.03;;;25.63;;
43146;SDS011;28752;48.266;7.402;2022-12-20T08:39:44;47.80;;;27.03;;
43146;SDS011;28752;48.266;7.402;2022-12-20T08:42:10;59.57;;;31.83;;
43146;SDS011;28752;48.266;7.402;2022-12-20T08:44:36;47.55;;;28.58;;
43146;SDS011;28752;48.266;7.402;2022-12-20T08:47:01;33.17;;;21.73;;
43146;SDS011;28752;48.266;7.402;2022-12-20T08:49:27;33.23;;;22.67;;
43146;SDS011;28752;48.266;7.402;2022-12-20T08:51:52;26.00;;;17.80;;
43146;SDS011;28752;48.266;7.402;2022-12-20T08:54:18;26.43;;;19.37;;
43146;SDS011;28752;48.266;7.402;2022-12-20T08:56:43;20.30;;;14.63;;
43146;SDS011;28752;48.266;7.402;2022-12-20T08:59:08;18.87;;;13.03;;
43146;SDS011;28752;48.266;7.402;2022-12-20T09:01:35;17.60;;;13.30;;
43146;SDS011;28752;48.266;7.402;2022-12-20T09:04:01;17.20;;;12.85;;
43146;SDS011;28752;48.266;7.402;2022-12-20T09:06:26;14.40;;;7.13;;
43146;SDS011;28752;48.266;7.402;2022-12-20T09:08:51;10.23;;;5.57;;
43146;SDS011;28752;48.266;7.402;2022-12-20T09:11:18;9.17;;;5.07;;
43146;SDS011;28752;48.266;7.402;2022-12-20T09:13:47;8.30;;;4.45;;
43146;SDS011;28752;48.266;7.402;2022-12-20T09:16:15;7.07;;;4.32;;
43146;SDS011;28752;48.266;7.402;2022-12-20T09:18:42;7.10;;;3.95;;
43146;SDS011;28752;48.266;7.402;2022-12-20T09:21:09;7.75;;;4.20;;
43146;SDS011;28752;48.266;7.402;2022-12-20T09:23:35;6.60;;;4.28;;
43146;SDS011;28752;48.266;7.402;2022-12-20T09:26:03;7.93;;;4.18;;
43146;SDS011;28752;48.266;7.402;2022-12-20T09:28:35;8.82;;;4.60;;
43146;SDS011;28752;48.266;7.402;2022-12-20T09:31:02;8.18;;;4.28;;
43146;SDS011;28752;48.266;7.402;2022-12-20T09:33:31;8.98;;;5.53;;
43146;SDS011;28752;48.266;7.402;2022-12-20T09:35:57;7.97;;;3.97;;
43146;SDS011;28752;48.266;7.402;2022-12-20T09:38:23;7.68;;;4.70;;
43146;SDS011;28752;48.266;7.402;2022-12-20T09:40:53;6.85;;;3.65;;
43146;SDS011;28752;48.266;7.402;2022-12-20T09:43:21;8.90;;;4.20;;
43146;SDS011;28752;48.266;7.402;2022-12-20T09:45:50;8.93;;;4.60;;
43146;SDS011;28752;48.266;7.402;2022-12-20T09:48:20;7.80;;;4.47;;
43146;SDS011;28752;48.266;7.402;2022-12-20T09:50:57;8.18;;;4.43;;
43146;SDS011;28752;48.266;7.402;2022-12-20T09:56:15;6.72;;;4.10;;
43146;SDS011;28752;48.266;7.402;2022-12-20T10:01:21;8.38;;;4.13;;
43146;SDS011;28752;48.266;7.402;2022-12-20T10:03:48;7.00;;;4.28;;
43146;SDS011;28752;48.266;7.402;2022-12-20T10:06:19;8.00;;;4.60;;
43146;SDS011;28752;48.266;7.402;2022-12-20T10:08:58;7.80;;;3.97;;
43146;SDS011;28752;48.266;7.402;2022-12-20T10:16:50;8.63;;;4.55;;
43146;SDS011;28752;48.266;7.402;2022-12-20T10:24:27;10.00;;;5.75;;
43146;SDS011;28752;48.266;7.402;2022-12-20T10:26:56;8.95;;;5.60;;
43146;SDS011;28752;48.266;7.402;2022-12-20T10:29:26;9.18;;;6.05;;
43146;SDS011;28752;48.266;7.402;2022-12-20T10:31:53;9.15;;;6.18;;
43146;SDS011;28752;48.266;7.402;2022-12-20T10:34:24;10.93;;;7.50;;
43146;SDS011;28752;48.266;7.402;2022-12-20T10:37:00;9.23;;;5.37;;
43146;SDS011;28752;48.266;7.402;2022-12-20T10:39:45;8.82;;;4.95;;
43146;SDS011;28752;48.266;7.402;2022-12-20T10:45:27;7.78;;;5.13;;
43146;SDS011;28752;48.266;7.402;2022-12-20T10:47:59;9.43;;;4.65;;
43146;SDS011;28752;48.266;7.402;2022-12-20T10:50:26;8.95;;;5.28;;
43146;SDS011;28752;48.266;7.402;2022-12-20T10:55:50;10.15;;;5.63;;
43146;SDS011;28752;48.266;7.402;2022-12-20T10:58:35;12.55;;;6.90;;
43146;SDS011;28752;48.266;7.402;2022-12-20T11:01:02;9.65;;;6.55;;
43146;SDS011;28752;48.266;7.402;2022-12-20T11:03:48;13.20;;;8.05;;
43146;SDS011;28752;48.266;7.402;2022-12-20T11:06:14;11.52;;;8.10;;
43146;SDS011;28752;48.266;7.402;2022-12-20T11:08:41;14.95;;;8.68;;
43146;SDS011;28752;48.266;7.402;2022-12-20T11:11:14;13.77;;;8.00;;
43146;SDS011;28752;48.266;7.402;2022-12-20T11:13:42;13.27;;;8.25;;
43146;SDS011;28752;48.266;7.402;2022-12-20T11:21:58;11.70;;;7.38;;
43146;SDS011;28752;48.266;7.402;2022-12-20T11:24:38;9.60;;;5.63;;
43146;SDS011;28752;48.266;7.402;2022-12-20T11:29:52;9.05;;;4.85;;
43146;SDS011;28752;48.266;7.402;2022-12-20T11:35:10;7.75;;;4.97;;
43146;SDS011;28752;48.266;7.402;2022-12-20T11:40:39;6.90;;;4.72;;
43146;SDS011;28752;48.266;7.402;2022-12-20T11:48:59;10.05;;;6.55;;
43146;SDS011;28752;48.266;7.402;2022-12-20T11:51:47;9.18;;;6.22;;
43146;SDS011;28752;48.266;7.402;2022-12-20T11:54:35;10.07;;;6.18;;
43146;SDS011;28752;48.266;7.402;2022-12-20T11:57:11;10.25;;;5.97;;
43146;SDS011;28752;48.266;7.402;2022-12-20T11:59:46;9.05;;;5.43;;
43146;SDS011;28752;48.266;7.402;2022-12-20T12:05:19;8.68;;;4.90;;
43146;SDS011;28752;48.266;7.402;2022-12-20T12:07:53;9.43;;;5.50;;
43146;SDS011;28752;48.266;7.402;2022-12-20T12:10:26;7.90;;;5.10;;
43146;SDS011;28752;48.266;7.402;2022-12-20T12:13:43;7.70;;;5.10;;
43146;SDS011;28752;48.266;7.402;2022-12-20T12:18:43;8.50;;;4.85;;
43146;SDS011;28752;48.266;7.402;2022-12-20T12:26:38;7.65;;;4.53;;
43146;SDS011;28752;48.266;7.402;2022-12-20T12:31:40;7.78;;;5.25;;
43146;SDS011;28752;48.266;7.402;2022-12-20T12:48:22;9.13;;;5.30;;
43146;SDS011;28752;48.266;7.402;2022-12-20T12:51:03;8.57;;;5.30;;
43146;SDS011;28752;48.266;7.402;2022-12-20T12:53:34;8.95;;;5.30;;
43146;SDS011;28752;48.266;7.402;2022-12-20T13:09:35;8.47;;;5.10;;
43146;SDS011;28752;48.266;7.402;2022-12-20T13:12:45;8.82;;;5.50;;
43146;SDS011;28752;48.266;7.402;2022-12-20T13:15:02;8.75;;;4.90;;
43146;SDS011;28752;48.266;7.402;2022-12-20T13:18:02;10.43;;;5.93;;
43146;SDS011;28752;48.266;7.402;2022-12-20T13:21:15;8.90;;;5.40;;
43146;SDS011;28752;48.266;7.402;2022-12-20T13:23:41;9.68;;;5.93;;
43146;SDS011;28752;48.266;7.402;2022-12-20T13:26:40;9.90;;;6.10;;
43146;SDS011;28752;48.266;7.402;2022-12-20T13:29:26;11.25;;;6.35;;
43146;SDS011;28752;48.266;7.402;2022-12-20T13:31:57;10.68;;;5.80;;
43146;SDS011;28752;48.266;7.402;2022-12-20T13:34:36;11.37;;;6.70;;
43146;SDS011;28752;48.266;7.402;2022-12-20T13:37:27;12.75;;;6.65;;
43146;SDS011;28752;48.266;7.402;2022-12-20T13:40:25;11.85;;;6.70;;
43146;SDS011;28752;48.266;7.402;2022-12-20T13:43:05;11.75;;;6.22;;
43146;SDS011;28752;48.266;7.402;2022-12-20T13:45:41;9.45;;;5.32;;
43146;SDS011;28752;48.266;7.402;2022-12-20T13:48:11;10.00;;;6.65;;
43146;SDS011;28752;48.266;7.402;2022-12-20T13:50:46;12.27;;;6.90;;
43146;SDS011;28752;48.266;7.402;2022-12-20T13:53:15;9.40;;;6.13;;
43146;SDS011;28752;48.266;7.402;2022-12-20T13:55:43;12.18;;;7.03;;
43146;SDS011;28752;48.266;7.402;2022-12-20T13:58:13;12.68;;;6.93;;
43146;SDS011;28752;48.266;7.402;2022-12-20T14:00:42;10.57;;;6.85;;
43146;SDS011;28752;48.266;7.402;2022-12-20T14:03:19;12.55;;;7.65;;
43146;SDS011;28752;48.266;7.402;2022-12-20T14:05:51;11.02;;;7.68;;
43146;SDS011;28752;48.266;7.402;2022-12-20T14:08:21;13.60;;;9.23;;
43146;SDS011;28752;48.266;7.402;2022-12-20T14:10:52;11.60;;;8.23;;
43146;SDS011;28752;48.266;7.402;2022-12-20T14:13:21;13.57;;;8.60;;
43146;SDS011;28752;48.266;7.402;2022-12-20T14:15:49;12.07;;;7.63;;
43146;SDS011;28752;48.266;7.402;2022-12-20T14:18:17;14.07;;;7.57;;
43146;SDS011;28752;48.266;7.402;2022-12-20T14:20:45;11.95;;;7.38;;
43146;SDS011;28752;48.266;7.402;2022-12-20T14:23:15;10.88;;;7.45;;
43146;SDS011;28752;48.266;7.402;2022-12-20T14:25:56;11.70;;;7.63;;
43146;SDS011;28752;48.266;7.402;2022-12-20T14:28:29;12.40;;;7.90;;
43146;SDS011;28752;48.266;7.402;2022-12-20T14:31:00;14.63;;;9.40;;
43146;SDS011;28752;48.266;7.402;2022-12-20T14:35:55;14.63;;;9.38;;
43146;SDS011;28752;48.266;7.402;2022-12-20T14:38:22;11.70;;;8.18;;
43146;SDS011;28752;48.266;7.402;2022-12-20T14:40:52;14.63;;;8.93;;
43146;SDS011;28752;48.266;7.402;2022-12-20T14:43:25;13.73;;;9.83;;
43146;SDS011;28752;48.266;7.402;2022-12-20T14:46:08;16.08;;;10.90;;
43146;SDS011;28752;48.266;7.402;2022-12-20T14:48:42;19.30;;;13.20;;
43146;SDS011;28752;48.266;7.402;2022-12-20T14:51:09;20.83;;;14.00;;
43146;SDS011;28752;48.266;7.402;2022-12-20T14:53:36;17.70;;;12.85;;
43146;SDS011;28752;48.266;7.402;2022-12-20T14:56:03;17.65;;;12.75;;
43146;SDS011;28752;48.266;7.402;2022-12-20T14:58:30;15.88;;;10.43;;
43146;SDS011;28752;48.266;7.402;2022-12-20T15:01:01;12.95;;;8.90;;
43146;SDS011;28752;48.266;7.402;2022-12-20T15:03:47;11.25;;;6.28;;
43146;SDS011;28752;48.266;7.402;2022-12-20T15:06:29;9.98;;;6.20;;
43146;SDS011;28752;48.266;7.402;2022-12-20T15:08:55;10.00;;;5.85;;
43146;SDS011;28752;48.266;7.402;2022-12-20T15:11:21;13.77;;;6.47;;
43146;SDS011;28752;48.266;7.402;2022-12-20T15:13:46;10.32;;;6.10;;
43146;SDS011;28752;48.266;7.402;2022-12-20T15:16:21;11.30;;;6.50;;
43146;SDS011;28752;48.266;7.402;2022-12-20T15:18:51;9.75;;;6.22;;
43146;SDS011;28752;48.266;7.402;2022-12-20T15:23:50;12.40;;;7.75;;
43146;SDS011;28752;48.266;7.402;2022-12-20T15:26:18;14.88;;;8.75;;
43146;SDS011;28752;48.266;7.402;2022-12-20T15:28:45;13.02;;;8.10;;
43146;SDS011;28752;48.266;7.402;2022-12-20T15:31:11;13.87;;;7.63;;
43146;SDS011;28752;48.266;7.402;2022-12-20T15:33:38;10.90;;;6.70;;
43146;SDS011;28752;48.266;7.402;2022-12-20T15:36:05;9.75;;;6.18;;
43146;SDS011;28752;48.266;7.402;2022-12-20T15:38:31;9.38;;;5.72;;
43146;SDS011;28752;48.266;7.402;2022-12-20T15:41:02;10.67;;;6.30;;
43146;SDS011;28752;48.266;7.402;2022-12-20T15:43:30;9.35;;;6.07;;
43146;SDS011;28752;48.266;7.402;2022-12-20T15:46:00;9.00;;;5.47;;
43146;SDS011;28752;48.266;7.402;2022-12-20T15:48:25;8.30;;;5.33;;
43146;SDS011;28752;48.266;7.402;2022-12-20T15:50:54;10.67;;;5.63;;
43146;SDS011;28752;48.266;7.402;2022-12-20T15:53:26;10.70;;;5.65;;
43146;SDS011;28752;48.266;7.402;2022-12-20T15:55:55;10.27;;;5.90;;
43146;SDS011;28752;48.266;7.402;2022-12-20T15:58:21;10.77;;;5.53;;
43146;SDS011;28752;48.266;7.402;2022-12-20T16:00:48;11.00;;;6.47;;
43146;SDS011;28752;48.266;7.402;2022-12-20T16:05:41;28.48;;;18.30;;
43146;SDS011;28752;48.266;7.402;2022-12-20T16:08:06;55.53;;;39.03;;
43146;SDS011;28752;48.266;7.402;2022-12-20T16:10:32;33.53;;;24.25;;
43146;SDS011;28752;48.266;7.402;2022-12-20T16:12:57;30.67;;;18.87;;
43146;SDS011;28752;48.266;7.402;2022-12-20T16:15:23;35.37;;;22.13;;
43146;SDS011;28752;48.266;7.402;2022-12-20T16:17:49;37.92;;;23.67;;
43146;SDS011;28752;48.266;7.402;2022-12-20T16:20:15;37.33;;;25.50;;
43146;SDS011;28752;48.266;7.402;2022-12-20T16:22:40;45.13;;;28.67;;
43146;SDS011;28752;48.266;7.402;2022-12-20T16:25:06;52.37;;;35.57;;
43146;SDS011;28752;48.266;7.402;2022-12-20T16:27:47;52.78;;;35.50;;
43146;SDS011;28752;48.266;7.402;2022-12-20T16:30:13;48.70;;;32.17;;
43146;SDS011;28752;48.266;7.402;2022-12-20T16:32:38;51.15;;;34.10;;
43146;SDS011;28752;48.266;7.402;2022-12-20T16:35:08;40.95;;;28.27;;
43146;SDS011;28752;48.266;7.402;2022-12-20T16:37:47;19.80;;;13.45;;
43146;SDS011;28752;48.266;7.402;2022-12-20T16:40:12;19.33;;;12.83;;
43146;SDS011;28752;48.266;7.402;2022-12-20T16:42:39;16.50;;;10.65;;
43146;SDS011;28752;48.266;7.402;2022-12-20T16:45:05;20.83;;;13.80;;
43146;SDS011;28752;48.266;7.402;2022-12-20T16:47:30;17.20;;;11.57;;
43146;SDS011;28752;48.266;7.402;2022-12-20T16:49:56;17.37;;;11.43;;
43146;SDS011;28752;48.266;7.402;2022-12-20T16:52:21;20.10;;;12.00;;
43146;SDS011;28752;48.266;7.402;2022-12-20T16:54:47;16.50;;;10.98;;
43146;SDS011;28752;48.266;7.402;2022-12-20T16:57:14;15.48;;;10.38;;